createdAt,value
2018-10-07T00:01:46.742Z,10.80
2018-10-07T00:04:14.297Z,10.27
2018-10-07T00:06:41.821Z,10.32
2018-10-07T00:09:09.379Z,10.45
2018-10-07T00:11:37.128Z,10.82
2018-10-07T00:14:04.711Z,10.20
2018-10-07T00:16:32.250Z,10.90
2018-10-07T00:18:59.778Z,11.08
2018-10-07T00:21:27.308Z,10.80
2018-10-07T00:23:54.847Z,10.95
2018-10-07T00:26:22.373Z,11.10
2018-10-07T00:28:49.896Z,10.67
2018-10-07T00:31:17.410Z,10.10
2018-10-07T00:33:44.933Z,10.50
2018-10-07T00:36:12.476Z,10.83
2018-10-07T00:38:40.008Z,10.67
2018-10-07T00:41:07.533Z,11.10
2018-10-07T00:43:35.094Z,10.87
2018-10-07T00:46:02.626Z,10.80
2018-10-07T00:48:30.165Z,11.03
2018-10-07T00:50:57.690Z,10.37
2018-10-07T00:53:25.222Z,10.80
2018-10-07T00:55:52.760Z,11.20
2018-10-07T00:58:20.277Z,11.10
2018-10-07T01:00:47.821Z,10.50
2018-10-07T01:03:15.343Z,11.97
2018-10-07T01:05:42.883Z,11.20
2018-10-07T01:08:10.400Z,10.97
2018-10-07T01:10:37.927Z,11.47
2018-10-07T01:13:05.734Z,11.57
2018-10-07T01:15:33.270Z,11.33
2018-10-07T01:18:00.813Z,11.03
2018-10-07T01:20:28.350Z,11.93
2018-10-07T01:22:55.866Z,11.70
2018-10-07T01:25:23.412Z,12.40
2018-10-07T01:27:50.954Z,13.30
2018-10-07T01:30:21.497Z,12.20
2018-10-07T01:32:50.847Z,12.70
2018-10-07T01:35:18.556Z,12.13
2018-10-07T01:37:46.218Z,12.03
2018-10-07T01:40:13.750Z,12.10
2018-10-07T01:42:41.313Z,12.53
2018-10-07T01:45:08.887Z,12.47
2018-10-07T01:47:36.423Z,11.97
2018-10-07T01:50:03.999Z,12.57
2018-10-07T01:52:31.543Z,12.67
2018-10-07T01:54:59.103Z,12.33
2018-10-07T01:57:26.630Z,12.53
2018-10-07T01:59:54.192Z,12.83
2018-10-07T02:02:21.738Z,13.10
2018-10-07T02:04:49.281Z,13.80
2018-10-07T02:07:16.818Z,12.60
2018-10-07T02:09:44.361Z,13.33
2018-10-07T02:12:11.886Z,13.03
2018-10-07T02:14:39.425Z,12.80
2018-10-07T02:17:07.000Z,12.70
2018-10-07T02:19:34.556Z,13.93
2018-10-07T02:22:02.096Z,13.33
2018-10-07T02:24:29.711Z,13.50
2018-10-07T02:26:57.253Z,12.87
2018-10-07T02:29:24.788Z,13.10
2018-10-07T02:31:52.361Z,13.83
2018-10-07T02:34:19.896Z,13.43
2018-10-07T02:36:47.447Z,13.80
2018-10-07T02:39:15.019Z,14.23
2018-10-07T02:41:42.563Z,14.10
2018-10-07T02:44:10.129Z,14.13
2018-10-07T02:46:37.677Z,14.27
2018-10-07T02:49:05.260Z,13.63
2018-10-07T02:51:32.822Z,14.57
2018-10-07T02:54:00.403Z,14.00
2018-10-07T02:56:27.961Z,14.03
2018-10-07T02:58:55.571Z,14.77
2018-10-07T03:01:23.111Z,14.73
2018-10-07T03:03:50.669Z,14.80
2018-10-07T03:06:18.238Z,15.00
2018-10-07T03:08:45.796Z,14.70
2018-10-07T03:11:13.343Z,15.80
2018-10-07T03:13:40.900Z,14.77
2018-10-07T03:16:08.475Z,15.03
2018-10-07T03:18:36.030Z,14.93
2018-10-07T03:21:03.573Z,16.07
2018-10-07T03:23:31.127Z,15.30
2018-10-07T03:25:58.679Z,15.93
2018-10-07T03:28:26.209Z,15.00
2018-10-07T03:30:53.758Z,15.87
2018-10-07T03:33:21.318Z,15.70
2018-10-07T03:35:48.863Z,14.63
2018-10-07T03:38:16.414Z,15.27
2018-10-07T03:40:43.970Z,14.90
2018-10-07T03:43:11.497Z,15.47
2018-10-07T03:45:39.046Z,15.70
2018-10-07T03:48:06.594Z,15.63
2018-10-07T03:50:34.154Z,16.20
2018-10-07T03:53:01.687Z,15.47
2018-10-07T03:55:29.235Z,14.83
2018-10-07T03:57:56.782Z,16.07
2018-10-07T04:00:25.409Z,15.77
2018-10-07T04:02:52.982Z,16.27
2018-10-07T04:05:20.545Z,15.60
2018-10-07T04:07:48.097Z,15.87
2018-10-07T04:10:15.642Z,15.60
2018-10-07T04:12:43.211Z,16.03
2018-10-07T04:15:10.779Z,15.83
2018-10-07T04:17:38.322Z,14.77
2018-10-07T04:20:05.910Z,14.10
2018-10-07T04:22:33.442Z,14.37
2018-10-07T04:25:01.010Z,15.20
2018-10-07T04:27:28.564Z,15.13
2018-10-07T04:29:56.105Z,14.53
2018-10-07T04:32:23.644Z,14.87
2018-10-07T04:34:51.195Z,14.30
2018-10-07T04:37:18.734Z,14.90
2018-10-07T04:39:46.370Z,14.70
2018-10-07T04:42:13.851Z,16.03
2018-10-07T04:44:41.387Z,15.67
2018-10-07T04:47:08.927Z,15.83
2018-10-07T04:49:36.463Z,14.63
2018-10-07T04:52:03.981Z,14.57
2018-10-07T04:54:31.517Z,15.13
2018-10-07T04:56:59.029Z,15.67
2018-10-07T04:59:26.553Z,15.30
2018-10-07T05:01:54.086Z,15.73
2018-10-07T05:04:21.618Z,16.33
2018-10-07T05:06:49.145Z,16.33
2018-10-07T05:09:16.675Z,15.60
2018-10-07T05:11:44.462Z,16.27
2018-10-07T05:14:11.983Z,15.60
2018-10-07T05:16:47.667Z,15.83
2018-10-07T05:19:15.442Z,15.13
2018-10-07T05:21:42.971Z,15.70
2018-10-07T05:24:10.502Z,15.97
2018-10-07T05:26:38.035Z,15.43
2018-10-07T05:29:05.566Z,16.70
2018-10-07T05:31:33.073Z,16.57
2018-10-07T05:34:00.590Z,16.80
2018-10-07T05:36:28.150Z,16.03
2018-10-07T05:38:55.667Z,14.63
2018-10-07T05:41:23.173Z,14.67
2018-10-07T05:43:50.706Z,15.50
2018-10-07T05:46:18.247Z,14.27
2018-10-07T05:48:45.935Z,14.10
2018-10-07T05:51:13.445Z,13.77
2018-10-07T05:53:40.991Z,13.43
2018-10-07T05:56:08.527Z,15.30
2018-10-07T05:58:37.037Z,14.93
2018-10-07T06:01:12.974Z,13.63
2018-10-07T06:04:54.165Z,14.23
2018-10-07T06:07:23.207Z,13.53
2018-10-07T06:09:50.732Z,14.13
2018-10-07T06:12:18.265Z,13.90
2018-10-07T06:15:03.370Z,14.47
2018-10-07T06:17:30.862Z,14.30
2018-10-07T06:19:58.386Z,14.97
2018-10-07T06:22:25.909Z,14.67
2018-10-07T06:24:53.439Z,14.77
2018-10-07T06:27:20.981Z,14.43
2018-10-07T06:29:48.549Z,15.73
2018-10-07T06:32:16.059Z,14.57
2018-10-07T06:34:43.579Z,14.97
2018-10-07T06:37:11.093Z,15.57
2018-10-07T06:39:38.623Z,15.47
2018-10-07T06:42:06.182Z,14.47
2018-10-07T06:44:33.721Z,14.70
2018-10-07T06:47:01.249Z,14.93
2018-10-07T06:49:28.785Z,14.37
2018-10-07T06:51:56.499Z,15.60
2018-10-07T06:54:24.045Z,13.93
2018-10-07T06:56:51.610Z,14.53
2018-10-07T06:59:19.160Z,13.90
2018-10-07T07:01:46.711Z,13.97
2018-10-07T07:04:14.420Z,14.67
2018-10-07T07:06:41.962Z,14.13
2018-10-07T07:09:10.557Z,13.23
2018-10-07T07:11:38.106Z,15.40
2018-10-07T07:14:05.699Z,14.00
2018-10-07T07:16:33.446Z,14.30
2018-10-07T07:19:00.986Z,15.10
2018-10-07T07:21:28.543Z,13.75
2018-10-07T07:23:56.061Z,14.58
2018-10-07T07:26:23.591Z,13.15
2018-10-07T07:28:51.123Z,13.00
2018-10-07T07:31:18.717Z,13.05
2018-10-07T07:33:46.207Z,12.40
2018-10-07T07:36:13.734Z,13.08
2018-10-07T07:38:41.242Z,13.10
2018-10-07T07:41:08.886Z,13.45
2018-10-07T07:43:36.701Z,13.00
2018-10-07T07:46:04.216Z,12.90
2018-10-07T07:48:31.728Z,13.05
2018-10-07T07:50:59.248Z,12.25
2018-10-07T07:53:26.755Z,11.60
2018-10-07T07:55:54.275Z,11.20
2018-10-07T07:58:21.778Z,11.95
2018-10-07T08:00:49.291Z,12.58
2018-10-07T08:03:16.806Z,12.73
2018-10-07T08:05:44.313Z,12.45
2018-10-07T08:08:11.818Z,11.95
2018-10-07T08:10:39.365Z,11.90
2018-10-07T08:13:06.970Z,12.70
2018-10-07T08:15:34.481Z,12.98
2018-10-07T08:18:01.995Z,13.58
2018-10-07T08:20:29.496Z,13.38
2018-10-07T08:22:57.014Z,15.32
2018-10-07T08:25:24.525Z,14.00
2018-10-07T08:27:52.043Z,13.45
2018-10-07T08:30:19.553Z,13.38
2018-10-07T08:32:47.070Z,17.27
2018-10-07T08:35:14.625Z,16.67
2018-10-07T08:37:42.093Z,18.30
2018-10-07T08:43:10.838Z,18.50
2018-10-07T08:45:38.363Z,16.97
2018-10-07T08:48:05.866Z,16.10
2018-10-07T08:50:50.496Z,17.75
2018-10-07T08:53:18.005Z,18.75
2018-10-07T08:55:45.509Z,17.02
2018-10-07T09:01:13.070Z,18.17
2018-10-07T09:03:40.573Z,17.57
2018-10-07T09:06:08.091Z,18.12
2018-10-07T09:08:35.632Z,18.67
2018-10-07T09:11:03.126Z,19.23
2018-10-07T09:13:32.739Z,21.33
2018-10-07T09:16:00.260Z,21.02
2018-10-07T09:18:27.774Z,21.52
2018-10-07T09:20:55.322Z,22.45
2018-10-07T09:23:22.814Z,22.82
2018-10-07T09:25:50.341Z,23.73
2018-10-07T09:28:17.887Z,24.98
2018-10-07T09:30:45.419Z,25.27
2018-10-07T09:33:12.938Z,26.87
2018-10-07T09:35:40.433Z,28.85
2018-10-07T09:38:07.967Z,28.90
2018-10-07T09:40:35.474Z,29.48
2018-10-07T09:43:03.014Z,28.85
2018-10-07T09:45:30.552Z,28.38
2018-10-07T09:47:58.427Z,28.80
2018-10-07T09:50:25.977Z,29.90
2018-10-07T09:52:53.542Z,30.62
2018-10-07T09:55:21.193Z,31.37
2018-10-07T09:57:48.758Z,33.28
2018-10-07T10:00:20.916Z,33.00
2018-10-07T10:02:48.454Z,34.88
2018-10-07T10:05:15.990Z,35.95
2018-10-07T10:07:43.526Z,35.48
2018-10-07T10:10:11.045Z,34.35
2018-10-07T10:12:38.590Z,33.33
2018-10-07T10:15:06.150Z,33.53
2018-10-07T10:17:34.124Z,32.53
2018-10-07T10:20:05.441Z,33.20
2018-10-07T10:23:19.302Z,31.55
2018-10-07T10:26:08.591Z,31.80
2018-10-07T10:28:48.030Z,32.55
2018-10-07T10:31:21.495Z,33.90
2018-10-07T10:34:09.262Z,34.73
2018-10-07T10:37:01.328Z,35.43
2018-10-07T10:39:49.345Z,34.55
2018-10-07T10:42:24.872Z,36.50
2018-10-07T10:44:57.391Z,35.90
2018-10-07T10:47:34.234Z,36.10
2018-10-07T10:50:15.186Z,34.60
2018-10-07T10:53:05.623Z,35.00
2018-10-07T10:56:47.742Z,33.88
2018-10-07T10:59:33.207Z,35.03
2018-10-07T11:04:15.538Z,35.08
2018-10-07T11:06:55.787Z,33.53
2018-10-07T11:10:37.294Z,34.13
2018-10-07T11:15:25.570Z,33.75
2018-10-07T11:18:12.394Z,31.27
2018-10-07T11:24:00.475Z,32.20
2018-10-07T11:26:49.995Z,31.37
2018-10-07T11:29:35.917Z,29.32
2018-10-07T11:32:39.079Z,25.88
2018-10-07T11:36:18.001Z,24.02
2018-10-07T11:40:08.383Z,23.40
2018-10-07T11:42:41.263Z,22.48
2018-10-07T11:45:32.477Z,20.32
2018-10-07T11:48:17.369Z,21.37
2018-10-07T11:51:58.389Z,19.27
2018-10-07T11:55:01.643Z,16.40
2018-10-07T11:57:29.260Z,14.55
2018-10-07T11:59:57.872Z,13.88
2018-10-07T12:02:26.212Z,13.62
2018-10-07T12:04:54.131Z,13.30
2018-10-07T12:07:22.596Z,11.83
2018-10-07T12:09:50.563Z,11.88
2018-10-07T12:12:18.415Z,12.30
2018-10-07T12:14:46.732Z,11.80
2018-10-07T12:17:14.807Z,11.10
2018-10-07T12:19:42.670Z,11.20
2018-10-07T12:22:10.649Z,10.68
2018-10-07T12:24:39.247Z,11.75
2018-10-07T12:27:08.307Z,11.65
2018-10-07T12:29:36.240Z,12.05
2018-10-07T12:32:04.151Z,11.50
2018-10-07T12:34:32.007Z,11.20
2018-10-07T12:36:59.936Z,10.90
2018-10-07T12:39:27.854Z,10.38
2018-10-07T12:41:55.703Z,9.75
2018-10-07T12:44:23.577Z,10.75
2018-10-07T12:46:51.377Z,10.70
2018-10-07T12:49:19.267Z,9.10
2018-10-07T12:51:47.131Z,8.95
2018-10-07T12:54:15.054Z,8.25
2018-10-07T12:56:42.871Z,8.05
2018-10-07T12:59:10.773Z,7.60
2018-10-07T13:01:38.651Z,7.87
2018-10-07T13:04:06.584Z,6.80
2018-10-07T13:06:34.461Z,6.50
2018-10-07T13:09:02.520Z,6.25
2018-10-07T13:11:30.471Z,5.72
2018-10-07T13:13:58.379Z,5.55
2018-10-07T13:16:26.250Z,5.60
2018-10-07T13:18:54.090Z,4.90
2018-10-07T13:21:21.989Z,4.97
2018-10-07T13:23:49.881Z,4.42
2018-10-07T13:26:17.795Z,3.75
2018-10-07T13:28:45.778Z,4.12
2018-10-07T13:31:13.644Z,3.47
2018-10-07T13:33:41.665Z,3.70
2018-10-07T13:36:09.431Z,3.75
2018-10-07T13:38:37.315Z,3.80
2018-10-07T13:41:05.454Z,3.27
2018-10-07T13:43:33.363Z,3.42
2018-10-07T13:46:01.163Z,3.27
2018-10-07T13:48:29.068Z,3.08
2018-10-07T13:50:56.895Z,2.90
2018-10-07T13:53:24.858Z,3.02
2018-10-07T13:55:52.699Z,2.67
2018-10-07T13:58:20.623Z,2.47
2018-10-07T14:00:48.500Z,2.58
2018-10-07T14:03:16.431Z,2.70
2018-10-07T14:05:44.370Z,2.37
2018-10-07T14:08:12.276Z,2.30
2018-10-07T14:10:40.161Z,2.35
2018-10-07T14:13:08.056Z,2.10
2018-10-07T14:15:35.931Z,2.10
2018-10-07T14:18:03.899Z,2.03
2018-10-07T14:20:31.756Z,2.10
2018-10-07T14:23:00.011Z,2.53
2018-10-07T14:25:27.884Z,2.30
2018-10-07T14:27:55.711Z,1.90
2018-10-07T14:30:23.549Z,2.40
2018-10-07T14:32:51.450Z,2.17
2018-10-07T14:35:19.372Z,2.00
2018-10-07T14:37:47.245Z,1.93
2018-10-07T14:40:15.223Z,1.70
2018-10-07T14:42:43.133Z,1.53
2018-10-07T14:45:11.065Z,1.43
2018-10-07T14:47:38.965Z,1.67
2018-10-07T14:50:06.826Z,1.30
2018-10-07T14:52:34.698Z,2.13
2018-10-07T14:55:02.637Z,1.57
2018-10-07T14:57:30.415Z,1.27
2018-10-07T14:59:58.350Z,1.30
2018-10-07T15:02:26.239Z,1.20
2018-10-07T15:04:54.333Z,1.50
2018-10-07T15:07:22.128Z,1.20
2018-10-07T15:09:50.027Z,1.30
2018-10-07T15:12:17.840Z,1.17
2018-10-07T15:14:45.674Z,1.40
2018-10-07T15:17:13.507Z,1.10
2018-10-07T15:19:41.412Z,1.10
2018-10-07T15:22:09.294Z,0.90
2018-10-07T15:24:42.675Z,1.00
2018-10-07T15:27:10.547Z,1.20
2018-10-07T15:29:38.412Z,1.30
2018-10-07T15:32:06.294Z,1.13
2018-10-07T15:34:34.236Z,1.00
2018-10-07T15:37:02.102Z,1.00
2018-10-07T15:39:29.999Z,1.10
2018-10-07T15:41:57.875Z,1.20
2018-10-07T15:44:25.753Z,1.00
2018-10-07T15:46:53.721Z,1.20
2018-10-07T15:49:21.548Z,1.20
2018-10-07T15:51:49.399Z,0.90
2018-10-07T15:54:17.269Z,1.10
2018-10-07T15:56:45.190Z,1.00
2018-10-07T15:59:13.086Z,0.90
2018-10-07T16:01:40.902Z,1.00
2018-10-07T16:04:08.812Z,0.83
2018-10-07T16:06:36.728Z,0.80
2018-10-07T16:09:07.495Z,0.70
2018-10-07T16:11:35.494Z,0.67
2018-10-07T16:14:03.308Z,0.83
2018-10-07T16:16:31.240Z,1.00
2018-10-07T16:18:59.098Z,0.80
2018-10-07T16:21:27.016Z,0.70
2018-10-07T16:23:55.233Z,0.80
2018-10-07T16:26:23.262Z,0.90
2018-10-07T16:28:51.088Z,0.70
2018-10-07T16:31:18.971Z,0.70
2018-10-07T16:33:46.796Z,0.50
2018-10-07T16:36:14.666Z,0.80
2018-10-07T16:38:42.437Z,1.00
2018-10-07T16:41:10.314Z,1.00
2018-10-07T16:43:38.167Z,0.70
2018-10-07T16:46:06.334Z,0.80
2018-10-07T16:48:34.253Z,0.80
2018-10-07T16:51:02.192Z,1.00
2018-10-07T16:53:30.046Z,0.80
2018-10-07T16:55:58.045Z,1.00
2018-10-07T16:58:25.897Z,0.90
2018-10-07T17:00:53.734Z,0.80
2018-10-07T17:03:21.559Z,0.90
2018-10-07T17:05:49.452Z,0.73
2018-10-07T17:08:17.332Z,0.73
2018-10-07T17:10:45.161Z,0.80
2018-10-07T17:13:13.062Z,0.73
2018-10-07T17:15:40.846Z,0.70
2018-10-07T17:18:08.734Z,0.50
2018-10-07T17:20:36.721Z,0.67
2018-10-07T17:23:04.746Z,0.70
2018-10-07T17:25:32.587Z,0.77
2018-10-07T17:28:00.436Z,0.80
2018-10-07T17:30:28.360Z,0.67
2018-10-07T17:32:56.314Z,0.53
2018-10-07T17:35:24.284Z,0.70
2018-10-07T17:37:52.184Z,0.83
2018-10-07T17:40:20.070Z,0.73
2018-10-07T17:42:47.990Z,0.83
2018-10-07T17:45:15.810Z,0.67
2018-10-07T17:47:43.681Z,0.70
2018-10-07T17:50:11.586Z,0.80
2018-10-07T17:52:39.502Z,0.90
2018-10-07T17:55:07.376Z,0.90
2018-10-07T17:57:35.243Z,0.90
2018-10-07T18:00:03.219Z,1.00
2018-10-07T18:02:31.127Z,0.80
2018-10-07T18:04:58.994Z,0.87
2018-10-07T18:07:26.914Z,0.63
2018-10-07T18:09:54.742Z,0.90
2018-10-07T18:12:22.571Z,0.83
2018-10-07T18:14:50.430Z,0.80
2018-10-07T18:17:18.328Z,1.20
2018-10-07T18:19:46.198Z,0.77
2018-10-07T18:22:14.128Z,0.80
2018-10-07T18:24:41.979Z,0.90
2018-10-07T18:27:09.808Z,1.20
2018-10-07T18:29:37.714Z,0.70
2018-10-07T18:32:05.616Z,1.00
2018-10-07T18:34:33.477Z,0.90
2018-10-07T18:37:01.380Z,1.00
2018-10-07T18:39:29.256Z,0.90
2018-10-07T18:41:57.073Z,0.70
2018-10-07T18:44:24.976Z,1.00
2018-10-07T18:46:52.880Z,0.70
2018-10-07T18:49:20.698Z,1.00
2018-10-07T18:52:06.590Z,0.80
2018-10-07T18:54:34.569Z,0.70
2018-10-07T18:57:02.415Z,0.80
2018-10-07T18:59:30.291Z,0.90
2018-10-07T19:01:58.174Z,0.90
2018-10-07T19:04:26.015Z,1.00
2018-10-07T19:06:53.920Z,0.77
2018-10-07T19:09:21.707Z,1.00
2018-10-07T19:11:49.573Z,1.03
2018-10-07T19:14:17.519Z,0.80
2018-10-07T19:16:45.381Z,0.80
2018-10-07T19:19:13.295Z,1.00
2018-10-07T19:21:41.112Z,1.10
2018-10-07T19:24:09.015Z,0.90
2018-10-07T19:26:36.846Z,0.90
2018-10-07T19:29:04.698Z,1.00
2018-10-07T19:31:32.563Z,1.07
2018-10-07T19:34:00.385Z,0.70
2018-10-07T19:36:28.283Z,0.87
2018-10-07T19:38:56.120Z,0.97
2018-10-07T19:41:24.004Z,1.00
2018-10-07T19:43:51.877Z,1.33
2018-10-07T19:46:19.810Z,1.00
2018-10-07T19:48:47.719Z,0.90
2018-10-07T19:51:15.646Z,0.83
2018-10-07T19:53:43.523Z,0.97
2018-10-07T19:56:11.375Z,1.50
2018-10-07T19:58:39.342Z,1.00
2018-10-07T20:01:07.249Z,1.00
2018-10-07T20:03:35.194Z,1.17
2018-10-07T20:06:03.102Z,1.50
2018-10-07T20:08:31.023Z,1.27
2018-10-07T20:10:59.129Z,1.30
2018-10-07T20:13:27.096Z,1.07
2018-10-07T20:15:54.856Z,1.20
2018-10-07T20:18:22.891Z,1.20
2018-10-07T20:20:50.622Z,1.13
2018-10-07T20:23:18.496Z,1.17
2018-10-07T20:25:46.436Z,1.90
2018-10-07T20:28:14.403Z,1.50
2018-10-07T20:30:42.370Z,1.80
2018-10-07T20:33:10.330Z,1.80
2018-10-07T20:35:38.194Z,1.90
2018-10-07T20:38:06.294Z,2.00
2018-10-07T20:40:34.251Z,2.07
2018-10-07T20:43:02.029Z,2.00
2018-10-07T20:45:29.910Z,1.70
2018-10-07T20:47:57.732Z,1.87
2018-10-07T20:50:25.688Z,1.40
2018-10-07T20:52:53.539Z,1.50
2018-10-07T20:55:21.385Z,1.40
2018-10-07T20:57:49.262Z,1.43
2018-10-07T21:00:17.128Z,1.43
2018-10-07T21:02:45.075Z,1.50
2018-10-07T21:05:12.856Z,1.40
2018-10-07T21:07:40.746Z,1.40
2018-10-07T21:10:08.563Z,1.40
2018-10-07T21:12:36.468Z,1.33
2018-10-07T21:15:04.271Z,1.60
2018-10-07T21:17:32.093Z,1.60
2018-10-07T21:20:00.072Z,1.80
2018-10-07T21:22:27.940Z,1.80
2018-10-07T21:24:55.767Z,1.63
2018-10-07T21:27:23.579Z,1.77
2018-10-07T21:29:51.527Z,1.70
2018-10-07T21:32:19.338Z,1.80
2018-10-07T21:34:47.234Z,1.93
2018-10-07T21:37:15.072Z,1.83
2018-10-07T21:39:42.943Z,1.90
2018-10-07T21:42:10.819Z,1.93
2018-10-07T21:44:38.745Z,2.00
2018-10-07T21:47:06.712Z,2.10
2018-10-07T21:49:34.664Z,1.90
2018-10-07T21:52:08.358Z,2.13
2018-10-07T21:54:59.980Z,2.00
2018-10-07T21:57:38.479Z,2.20
2018-10-07T22:00:07.339Z,2.00
2018-10-07T22:02:48.442Z,2.60
2018-10-07T22:05:26.653Z,2.33
2018-10-07T22:07:54.566Z,2.23
2018-10-07T22:10:22.386Z,2.60
2018-10-07T22:12:50.406Z,2.40
2018-10-07T22:15:18.332Z,2.17
2018-10-07T22:17:48.268Z,2.30
2018-10-07T22:20:16.173Z,2.20
2018-10-07T22:22:44.083Z,2.30
2018-10-07T22:25:12.073Z,1.90
2018-10-07T22:27:39.916Z,2.23
2018-10-07T22:30:07.828Z,2.40
2018-10-07T22:32:35.748Z,2.30
2018-10-07T22:35:03.866Z,2.10
2018-10-07T22:37:31.829Z,2.20
2018-10-07T22:39:59.696Z,2.67
2018-10-07T22:42:27.607Z,2.37
2018-10-07T22:44:55.482Z,2.40
2018-10-07T22:47:23.471Z,2.73
2018-10-07T22:49:51.394Z,2.20
2018-10-07T22:52:19.273Z,2.67
2018-10-07T22:54:47.144Z,2.40
2018-10-07T22:57:15.775Z,2.43
2018-10-07T22:59:43.687Z,2.40
2018-10-07T23:02:11.620Z,2.77
2018-10-07T23:04:39.903Z,2.70
2018-10-07T23:07:07.956Z,2.70
2018-10-07T23:09:35.855Z,2.73
2018-10-07T23:12:03.752Z,2.90
2018-10-07T23:14:31.667Z,2.80
2018-10-07T23:16:59.506Z,2.70
2018-10-07T23:19:27.354Z,2.77
2018-10-07T23:21:55.184Z,2.70
2018-10-07T23:24:23.053Z,2.80
2018-10-07T23:26:50.966Z,2.60
2018-10-07T23:29:18.862Z,2.13
2018-10-07T23:31:46.755Z,2.67
2018-10-07T23:34:14.671Z,2.47
2018-10-07T23:36:42.587Z,2.67
2018-10-07T23:39:11.418Z,2.80
2018-10-07T23:41:39.563Z,2.67
2018-10-07T23:44:07.819Z,2.67
2018-10-07T23:46:35.723Z,2.50
2018-10-07T23:49:03.587Z,2.90
2018-10-07T23:51:31.460Z,2.97
2018-10-07T23:53:59.340Z,3.00
2018-10-07T23:56:27.239Z,2.80
2018-10-07T23:58:55.098Z,3.00
